Time;durP1;ratioP1;P1;durP2;ratioP2;P2;SDS_P1;SDS_P2;PMS_P1;PMS_P2;Temp;Humidity;BMP_temperature;BMP_pressure;BME280_temperature;BME280_humidity;BME280_pressure;Samples;Min_cycle;Max_cycle;Signal;HPM_P1;HPM_P2
2023/07/27 00:01:03;;;;;;;0.00;0.00;;;;;;;15.15;nan;99314.47;4971075;28;20026;-80
2023/07/27 00:04:24;;;;;;;;;;;;;;;;;;;;;
2023/07/27 00:07:41;;;;;;;0.00;0.00;;;;;;;15.19;nan;99285.16;4912175;28;20030;-78
2023/07/27 00:10:07;;;;;;;0.00;0.00;;;;;;;15.21;nan;99289.53;4962641;28;20054;-77
2023/07/27 00:12:32;;;;;;;0.00;0.00;;;;;;;;;;4950753;28;20061;-78
2023/07/27 00:15:12;;;;;;;0.00;0.00;;;;;;;15.23;nan;99287.25;4937423;28;20031;-77
2023/07/27 00:18:07;;;;;;;0.00;0.00;;;;;;;15.17;nan;99273.66;4948448;28;20469;-77
2023/07/27 00:20:35;;;;;;;0.00;0.00;;;;;;;15.05;nan;99256.97;4886974;29;20598;-77
2023/07/27 00:23:35;;;;;;;0.00;0.00;;;;;;;;;;4968699;28;20045;-77
2023/07/27 00:26:04;;;;;;;0.00;0.00;;;;;;;15.22;nan;99291.16;4893112;29;20044;-78
2023/07/27 00:36:00;;;;;;;0.00;0.00;;;;;;;15.26;nan;99265.38;4865704;29;20064;-78
2023/07/27 00:38:35;;;;;;;0.00;0.00;;;;;;;15.07;nan;99235.44;4905388;29;20040;-79
2023/07/27 00:45:39;;;;;;;0.00;0.00;;;;;;;15.07;nan;99212.59;4943424;28;20110;-77
2023/07/27 00:47:58;;;;;;;0.00;0.00;;;;;;;15.16;nan;99243.69;4947647;28;20038;-77
2023/07/27 00:50:36;;;;;;;0.00;0.00;;;;;;;15.05;nan;99221.19;4948470;28;20031;-77
2023/07/27 00:53:42;;;;;;;0.00;0.00;;;;;;;15.28;nan;99252.09;4921630;28;20035;-78
2023/07/27 00:56:08;;;;;;;0.00;0.00;;;;;;;;;;4942696;28;20040;-80
2023/07/27 00:58:34;;;;;;;0.00;0.00;;;;;;;15.14;nan;99224.75;4946751;28;20026;-83
2023/07/27 01:01:20;;;;;;;0.00;0.00;;;;;;;15.31;nan;99225.84;4954761;28;20058;-85
2023/07/27 01:11:31;;;;;;;;;;;;;;;;;;;;;
2023/07/27 01:21:11;;;;;;;0.00;0.00;;;;;;;;;;4844123;29;20517;-78
2023/07/27 01:27:42;;;;;;;0.00;0.00;;;;;;;15.40;nan;99203.78;4911708;28;20130;-79
2023/07/27 01:47:39;;;;;;;0.00;0.00;;;;;;;15.47;nan;99171.84;4842539;29;20089;-81
2023/07/27 01:51:16;;;;;;;;;;;;;;;;;;;;;
2023/07/27 01:54:13;;;;;;;0.00;0.00;;;;;;;;;;4870539;29;20056;-79
2023/07/27 01:57:13;;;;;;;0.00;0.00;;;;;;;15.34;nan;99135.09;4874775;29;20804;-79
2023/07/27 01:59:45;;;;;;;0.00;0.00;;;;;;;15.47;nan;99171.84;4862772;29;20139;-79
2023/07/27 02:02:32;;;;;;;0.00;0.00;;;;;;;15.49;nan;99164.06;4892197;29;20032;-79
2023/07/27 02:05:24;;;;;;;0.00;0.00;;;;;;;15.31;nan;99141.28;4888106;29;20052;-79
2023/07/27 02:08:16;;;;;;;0.00;0.00;;;;;;;15.35;nan;99141.44;4878731;29;20036;-78
2023/07/27 02:10:49;;;;;;;0.00;0.00;;;;;;;15.42;nan;99147.25;4937881;28;20082;-77
2023/07/27 02:13:43;;;;;;;0.00;0.00;;;;;;;15.54;nan;99166.63;4974938;28;20030;-79
2023/07/27 02:16:57;;;;;;;;;;;;;;;;;;;;;
2023/07/27 02:20:32;;;;;;;;;;;;;;;;;;;;;
2023/07/27 02:30:29;;;;;;;0.00;0.00;;;;;;;;;;4884443;29;20077;-78
2023/07/27 02:36:11;;;;;;;0.00;0.00;;;;;;;;;;4888962;29;20396;-78
2023/07/27 02:39:07;;;;;;;0.00;0.00;;;;;;;;;;4963615;28;20043;-78
2023/07/27 02:41:32;;;;;;;0.00;0.00;;;;;;;15.50;nan;99087.75;4969026;28;20069;-78
2023/07/27 02:44:08;;;;;;;;;;;;;;;;;;;;;
2023/07/27 02:47:29;;;;;;;0.00;0.00;;;;;;;15.61;nan;99110.19;4975313;28;20041;-77
2023/07/27 02:53:11;;;;;;;0.00;0.00;;;;;;;;;;4949344;28;20037;-77
2023/07/27 02:56:19;;;;;;;;;;;;;;;;;;;;;
2023/07/27 02:59:49;;;;;;;0.00;0.00;;;;;;;15.47;nan;99100.22;4942813;28;20037;-76
2023/07/27 03:05:33;;;;;;;0.00;0.00;;;;;;;;;;4883407;29;20055;-77
2023/07/27 03:08:11;;;;;;;0.00;0.00;;;;;;;15.53;nan;99093.38;4864514;29;20388;-77
2023/07/27 03:11:29;;;;;;;0.00;0.00;;;;;;;15.50;nan;99082.22;4874078;28;20046;-79
2023/07/27 03:17:53;;;;;;;0.00;0.00;;;;;;;15.51;nan;99081.91;4954338;28;20436;-78
2023/07/27 03:20:21;;;;;;;0.00;0.00;;;;;;;;;;4967690;28;20727;-79
2023/07/27 03:22:59;;;;;;;0.00;0.00;;;;;;;15.58;nan;99091.56;4961492;28;20033;-77
2023/07/27 03:25:30;;;;;;;0.00;0.00;;;;;;;;;;4965519;28;20113;-79
2023/07/27 03:28:00;;;;;;;0.00;0.00;;;;;;;;;;4966856;28;20030;-78
2023/07/27 03:30:28;;;;;;;0.00;0.00;;;;;;;15.73;nan;99118.59;4966044;28;20100;-81
2023/07/27 03:32:56;;;;;;;0.00;0.00;;;;;;;15.79;nan;99097.97;4968210;28;20022;-80
2023/07/27 03:35:28;;;;;;;0.00;0.00;;;;;;;15.72;nan;99083.88;4966779;28;20385;-82
2023/07/27 03:37:53;;;;;;;0.00;0.00;;;;;;;15.86;nan;99097.47;4953103;28;20401;-81
2023/07/27 03:47:30;;;;;;;0.00;0.00;;;;;;;15.94;nan;99090.28;4860765;29;20115;-80
2023/07/27 03:50:21;;;;;;;0.00;0.00;;;;;;;15.77;nan;99080.97;4869016;29;20025;-81
2023/07/27 03:53:03;;;;;;;0.00;0.00;;;;;;;15.79;nan;99094.44;4894134;29;20036;-80
2023/07/27 03:55:32;;;;;;;0.00;0.00;;;;;;;;;;4873958;29;20806;-81
2023/07/27 03:58:00;;;;;;;0.00;0.00;;;;;;;15.92;nan;99109.91;4931136;28;20059;-81
2023/07/27 04:00:25;;;;;;;0.00;0.00;;;;;;;;;;4930284;28;20037;-81
2023/07/27 04:03:00;;;;;;;0.00;0.00;;;;;;;15.83;nan;99100.91;4950186;28;20157;-81
2023/07/27 04:05:58;;;;;;;0.00;0.00;;;;;;;15.94;nan;99117.84;4944672;29;20045;-80
2023/07/27 04:08:23;;;;;;;0.00;0.00;;;;;;;15.85;nan;99088.38;4950188;28;20109;-80
2023/07/27 04:10:59;;;;;;;0.00;0.00;;;;;;;15.92;nan;99104.41;4961587;28;20122;-80
2023/07/27 04:13:24;;;;;;;0.00;0.00;;;;;;;;;;4935479;28;20465;-80
2023/07/27 04:15:50;;;;;;;0.00;0.00;;;;;;;15.97;nan;99095.13;4954480;28;20038;-81
2023/07/27 04:18:15;;;;;;;0.00;0.00;;;;;;;16.08;nan;99098.28;4937550;28;20078;-79
2023/07/27 04:21:05;;;;;;;0.00;0.00;;;;;;;;;;4935605;28;20441;-80
2023/07/27 04:23:33;;;;;;;0.00;0.00;;;;;;;;;;4950174;28;20479;-81
2023/07/27 04:26:01;;;;;;;0.00;0.00;;;;;;;16.05;nan;99103.34;4944512;29;20086;-81
2023/07/27 04:28:40;;;;;;;0.00;0.00;;;;;;;16.15;nan;99113.16;4949466;28;20023;-81
2023/07/27 04:35:19;;;;;;;0.00;0.00;;;;;;;16.21;nan;99111.81;4873773;29;20044;-79
2023/07/27 04:37:45;;;;;;;0.00;0.00;;;;;;;16.10;nan;99085.78;4903451;29;20048;-81
2023/07/27 04:40:11;;;;;;;0.00;0.00;;;;;;;;;;4942323;28;20035;-77
2023/07/27 04:42:41;;;;;;;0.00;0.00;;;;;;;;;;4971471;28;20030;-78
2023/07/27 04:45:14;;;;;;;0.00;0.00;;;;;;;16.07;nan;99077.38;4955642;28;20054;-78
2023/07/27 04:47:40;;;;;;;0.00;0.00;;;;;;;16.05;nan;99097.81;4989648;28;20465;-77
2023/07/27 04:50:13;;;;;;;0.00;0.00;;;;;;;16.02;nan;99097.69;4956396;28;20038;-78
2023/07/27 04:52:38;;;;;;;0.00;0.00;;;;;;;16.11;nan;99106.69;4950307;28;20066;-78
2023/07/27 04:55:24;;;;;;;0.00;0.00;;;;;;;16.00;nan;99083.41;4974044;28;20038;-78
2023/07/27 04:57:52;;;;;;;0.00;0.00;;;;;;;;;;4951856;28;20034;-78
2023/07/27 05:00:17;;;;;;;0.00;0.00;;;;;;;16.07;nan;99099.44;4963825;28;20093;-78
2023/07/27 05:02:43;;;;;;;0.00;0.00;;;;;;;16.14;nan;99099.72;4943371;28;21595;-79
2023/07/27 05:05:09;;;;;;;0.00;0.00;;;;;;;16.13;nan;99076.81;4959120;28;20441;-79
2023/07/27 05:07:39;;;;;;;0.00;0.00;;;;;;;;;;4962330;28;20685;-79
2023/07/27 05:10:13;;;;;;;0.00;0.00;;;;;;;;;;4978654;28;20034;-77
2023/07/27 06:43:18;;;;;;;0.00;0.00;;;;;;;17.57;nan;99117.78;5627398;22;15102887;-77
2023/07/27 06:45:44;;;;;;;0.00;0.00;;;;;;;17.76;nan;99113.66;6274896;22;20038;-79
2023/07/27 06:48:15;;;;;;;0.00;0.00;;;;;;;18.22;nan;99153.03;6276954;22;20610;-79
2023/07/27 06:50:50;;;;;;;0.00;0.00;;;;;;;18.33;nan;99134.00;6254149;22;20007;-77
2023/07/27 06:53:16;;;;;;;0.00;0.00;;;;;;;18.39;nan;99120.72;6277160;22;20116;-80
2023/07/27 06:56:09;;;;;;;;;;;;;;;;;;;;;
2023/07/27 06:58:34;;;;;;;0.00;0.00;;;;;;;18.65;nan;99123.06;6281626;22;20078;-81
2023/07/27 07:01:04;;;;;;;0.00;0.00;;;;;;;18.89;nan;99116.63;6253276;22;20086;-80
2023/07/27 07:03:45;;;;;;;0.00;0.00;;;;;;;18.86;nan;99100.72;6277968;22;20027;-80
2023/07/27 07:06:13;;;;;;;0.00;0.00;;;;;;;18.81;nan;99109.28;6277485;22;20012;-76
2023/07/27 07:08:42;;;;;;;0.00;0.00;;;;;;;18.69;nan;99117.63;6279080;22;20087;-78
2023/07/27 07:11:14;;;;;;;0.00;0.00;;;;;;;18.63;nan;99120.66;6249468;22;20003;-77
2023/07/27 07:13:40;;;;;;;0.00;0.00;;;;;;;18.72;nan;99126.03;6228742;22;20015;-77
2023/07/27 07:16:12;;;;;;;0.00;0.00;;;;;;;18.78;nan;99110.78;6271110;22;20338;-78
2023/07/27 07:18:41;;;;;;;0.00;0.00;;;;;;;19.13;nan;99126.78;6229065;22;20012;-77
2023/07/27 07:21:11;;;;;;;0.00;0.00;;;;;;;19.65;nan;99124.91;6249887;22;20528;-78
2023/07/27 07:23:36;;;;;;;0.00;0.00;;;;;;;20.08;nan;99108.53;6278138;22;20377;-76
2023/07/27 07:26:02;;;;;;;0.00;0.00;;;;;;;20.36;nan;99140.84;6218253;22;20004;-77
2023/07/27 07:28:27;;;;;;;0.00;0.00;;;;;;;20.20;nan;99146.44;6264050;22;20007;-76
2023/07/27 07:30:53;;;;;;;0.00;0.00;;;;;;;19.95;nan;99143.91;6216521;22;20007;-77
2023/07/27 07:33:19;;;;;;;0.00;0.00;;;;;;;19.81;nan;99146.31;6239021;22;20012;-76
2023/07/27 07:35:44;;;;;;;0.00;0.00;;;;;;;19.72;nan;99157.56;6243219;22;20061;-74
2023/07/27 07:38:09;;;;;;;0.00;0.00;;;;;;;19.57;nan;99150.06;6261510;22;20004;-74
2023/07/27 07:40:35;;;;;;;0.00;0.00;;;;;;;19.66;nan;99154.25;6240360;22;20012;-74
2023/07/27 07:43:00;;;;;;;0.00;0.00;;;;;;;19.88;nan;99155.63;6243287;22;20019;-73
2023/07/27 07:45:26;;;;;;;0.00;0.00;;;;;;;19.92;nan;99150.16;6241289;22;20008;-74
2023/07/27 07:47:54;;;;;;;0.00;0.00;;;;;;;19.73;nan;99163.91;6269485;22;19996;-73
2023/07/27 07:50:20;;;;;;;0.00;0.00;;;;;;;19.76;nan;99166.00;6211233;22;20082;-74
2023/07/27 07:52:48;;;;;;;0.00;0.00;;;;;;;19.92;nan;99157.66;6265909;22;20004;-74
2023/07/27 07:55:13;;;;;;;0.00;0.00;;;;;;;20.12;nan;99159.34;6244845;22;20029;-73
2023/07/27 07:57:39;;;;;;;0.00;0.00;;;;;;;20.26;nan;99153.31;6241883;22;20011;-73
2023/07/27 08:00:10;;;;;;;0.00;0.00;;;;;;;20.40;nan;99161.16;6220748;22;20346;-76
2023/07/27 08:02:35;;;;;;;0.00;0.00;;;;;;;20.27;nan;99143.00;6214470;22;20010;-74
2023/07/27 08:05:04;;;;;;;0.00;0.00;;;;;;;20.27;nan;99129.94;6269594;22;20433;-74
2023/07/27 08:07:30;;;;;;;0.00;0.00;;;;;;;20.51;nan;99130.84;6268094;22;20004;-75
2023/07/27 08:09:58;;;;;;;0.00;0.00;;;;;;;20.71;nan;99117.81;6245735;22;20011;-75
2023/07/27 08:12:24;;;;;;;0.00;0.00;;;;;;;20.98;nan;99129.03;6269647;22;20008;-76
2023/07/27 08:14:49;;;;;;;0.00;0.00;;;;;;;20.84;nan;99143.47;6267062;22;20429;-75
2023/07/27 08:17:30;;;;;;;;;;;;;;;;;;;;;
2023/07/27 08:19:59;;;;;;;0.00;0.00;;;;;;;20.21;nan;99123.09;6266130;22;20490;-75
2023/07/27 08:22:24;;;;;;;0.00;0.00;;;;;;;20.20;nan;99143.66;6245680;22;20003;-75
2023/07/27 08:24:50;;;;;;;0.00;0.00;;;;;;;20.21;nan;99148.84;6267680;22;20016;-76
2023/07/27 08:27:38;;;;;;;0.00;0.00;;;;;;;20.04;nan;99136.16;6244791;22;20011;-75
2023/07/27 08:30:04;;;;;;;0.00;0.00;;;;;;;20.18;nan;99134.88;6268755;22;20635;-75
2023/07/27 08:32:33;;;;;;;0.00;0.00;;;;;;;20.27;nan;99141.06;6271037;22;20386;-75
2023/07/27 08:35:57;;;;;;;;;;;;;;;;;;;;;
2023/07/27 08:38:24;;;;;;;0.00;0.00;;;;;;;20.47;nan;99129.97;6268124;22;20094;-74
2023/07/27 08:41:15;;;;;;;0.00;0.00;;;;;;;20.57;nan;99129.38;6268136;22;20247;-75
2023/07/27 08:43:44;;;;;;;0.00;0.00;;;;;;;20.95;nan;99127.78;6252818;22;20028;-75
2023/07/27 08:46:32;;;;;;;;;;;;;;;;;;;;;
2023/07/27 08:49:39;;;;;;;;;;;;;;;;;;;;;
2023/07/27 08:52:12;;;;;;;0.00;0.00;;;;;;;20.73;nan;99132.94;6258777;22;20086;-74
2023/07/27 08:55:03;;;;;;;0.00;0.00;;;;;;;20.61;nan;99138.59;6270639;22;20000;-75
2023/07/27 08:57:56;;;;;;;0.00;0.00;;;;;;;20.28;nan;99105.75;6242795;22;20094;-75
2023/07/27 09:00:41;;;;;;;;;;;;;;;;;;;;;
2023/07/27 09:03:07;;;;;;;0.00;0.00;;;;;;;20.89;nan;99151.47;6272042;22;20287;-76
2023/07/27 09:05:40;;;;;;;0.00;0.00;;;;;;;20.65;nan;99108.94;6271407;22;20034;-75
2023/07/27 09:08:13;;;;;;;0.00;0.00;;;;;;;21.01;nan;99162.47;6265705;22;20476;-75
2023/07/27 09:10:43;;;;;;;0.00;0.00;;;;;;;21.12;nan;99132.06;6269011;22;20019;-76
2023/07/27 09:13:09;;;;;;;0.00;0.00;;;;;;;21.45;nan;99134.25;6268386;22;20058;-76
2023/07/27 09:15:42;;;;;;;0.00;0.00;;;;;;;21.62;nan;99146.09;6271388;22;20003;-76
2023/07/27 09:18:10;;;;;;;0.00;0.00;;;;;;;21.74;nan;99145.91;6265032;22;20061;-76
2023/07/27 09:20:35;;;;;;;0.00;0.00;;;;;;;22.00;nan;99149.88;6244222;22;20008;-76
2023/07/27 09:23:01;;;;;;;0.00;0.00;;;;;;;21.77;nan;99128.47;6265669;22;20487;-76
2023/07/27 09:25:26;;;;;;;0.00;0.00;;;;;;;21.79;nan;99131.66;6269768;22;20099;-74
2023/07/27 09:27:57;;;;;;;0.00;0.00;;;;;;;22.25;nan;99130.75;6266817;22;20006;-75
2023/07/27 09:30:24;;;;;;;0.00;0.00;;;;;;;22.21;nan;99137.44;6271115;22;20307;-76
2023/07/27 09:32:51;;;;;;;0.00;0.00;;;;;;;22.09;nan;99150.41;6270965;22;20000;-77
2023/07/27 09:35:18;;;;;;;0.00;0.00;;;;;;;21.72;nan;99156.59;6266413;22;20038;-76
2023/07/27 09:37:52;;;;;;;0.00;0.00;;;;;;;21.45;nan;99145.38;6270245;22;20385;-75
2023/07/27 09:40:25;;;;;;;0.00;0.00;;;;;;;21.50;nan;99147.06;6267447;22;20007;-77
2023/07/27 09:42:51;;;;;;;0.00;0.00;;;;;;;21.48;nan;99143.03;6270855;22;20020;-75
2023/07/27 09:45:18;;;;;;;0.00;0.00;;;;;;;21.59;nan;99155.16;6265128;22;20008;-75
2023/07/27 09:47:45;;;;;;;0.00;0.00;;;;;;;21.78;nan;99168.19;6271882;22;20043;-75
2023/07/27 09:50:10;;;;;;;0.00;0.00;;;;;;;21.79;nan;99147.56;6269815;22;20054;-76
2023/07/27 09:52:39;;;;;;;0.00;0.00;;;;;;;21.69;nan;99148.97;6265170;22;20004;-77
2023/07/27 09:55:05;;;;;;;0.00;0.00;;;;;;;21.63;nan;99149.69;6269585;22;20000;-76
2023/07/27 09:57:30;;;;;;;0.00;0.00;;;;;;;21.53;nan;99167.78;6269712;22;20000;-78
2023/07/27 09:59:57;;;;;;;0.00;0.00;;;;;;;21.28;nan;99157.00;6266131;22;20038;-78
2023/07/27 10:02:24;;;;;;;0.00;0.00;;;;;;;21.17;nan;99148.44;6269215;22;20003;-74
2023/07/27 10:04:50;;;;;;;0.00;0.00;;;;;;;21.19;nan;99159.22;6270780;22;20418;-74
2023/07/27 10:07:20;;;;;;;0.00;0.00;;;;;;;21.16;nan;99173.81;6269056;22;20095;-75
2023/07/27 10:09:47;;;;;;;0.00;0.00;;;;;;;21.00;nan;99160.03;6272613;22;20004;-75
2023/07/27 10:12:33;;;;;;;0.00;0.00;;;;;;;21.02;nan;99166.81;6268948;22;20426;-74
2023/07/27 10:15:18;;;;;;;0.00;0.00;;;;;;;20.95;nan;99165.88;6270978;22;20015;-75
2023/07/27 10:17:58;;;;;;;0.00;0.00;;;;;;;20.83;nan;99173.19;6271189;22;20426;-75
2023/07/27 10:20:33;;;;;;;0.00;0.00;;;;;;;20.67;nan;99155.81;6268914;22;20501;-74
2023/07/27 10:23:33;;;;;;;0.00;0.00;;;;;;;20.71;nan;99174.16;6271463;22;20030;-74
2023/07/27 10:26:16;;;;;;;0.00;0.00;;;;;;;20.49;nan;99149.84;6265201;22;20624;-74
2023/07/27 10:28:57;;;;;;;;;;;;;;;;;;;;;
2023/07/27 10:31:27;;;;;;;0.00;0.00;;;;;;;20.85;nan;99150.59;6273259;22;20083;-76
2023/07/27 10:34:26;;;;;;;;;;;;;;;;;;;;;
2023/07/27 10:37:02;;;;;;;0.00;0.00;;;;;;;21.82;nan;99173.84;6272429;22;20083;-74
2023/07/27 10:39:43;;;;;;;;;;;;;;;;;;;;;
2023/07/27 10:42:12;;;;;;;0.00;0.00;;;;;;;22.07;nan;99179.78;6272995;22;20611;-75
2023/07/27 10:44:57;;;;;;;0.00;0.00;;;;;;;21.81;nan;99175.00;6267129;22;20012;-75
2023/07/27 10:47:53;;;;;;;0.00;0.00;;;;;;;21.77;nan;99183.28;6270441;22;20061;-76
2023/07/27 10:50:21;;;;;;;0.00;0.00;;;;;;;21.84;nan;99168.69;6271475;22;20083;-75
2023/07/27 10:52:54;;;;;;;0.00;0.00;;;;;;;21.94;nan;99148.59;6238372;22;20008;-74
2023/07/27 10:55:25;;;;;;;0.00;0.00;;;;;;;22.42;nan;99173.97;6269888;22;20382;-75
2023/07/27 10:57:56;;;;;;;0.00;0.00;;;;;;;22.61;nan;99163.88;6241189;22;20007;-75
2023/07/27 11:00:34;;;;;;;0.00;0.00;;;;;;;22.78;nan;99163.31;6268959;22;20057;-74
2023/07/27 11:03:02;;;;;;;0.00;0.00;;;;;;;22.87;nan;99165.81;6266644;22;20014;-74
2023/07/27 11:05:30;;;;;;;0.00;0.00;;;;;;;22.98;nan;99158.38;6271069;22;20018;-75
2023/07/27 11:08:05;;;;;;;0.00;0.00;;;;;;;23.34;nan;99146.81;6266706;22;20000;-74
2023/07/27 11:10:33;;;;;;;0.00;0.00;;;;;;;23.57;nan;99174.53;6269905;22;20010;-74
2023/07/27 11:13:00;;;;;;;0.00;0.00;;;;;;;23.51;nan;99160.13;6266285;22;20007;-75
2023/07/27 11:15:30;;;;;;;0.00;0.00;;;;;;;23.40;nan;99153.63;6268783;22;20010;-74
2023/07/27 11:17:59;;;;;;;0.00;0.00;;;;;;;23.37;nan;99160.00;6266922;22;20000;-74
2023/07/27 11:20:27;;;;;;;0.00;0.00;;;;;;;23.55;nan;99176.09;6267109;22;20014;-75
2023/07/27 11:22:56;;;;;;;0.00;0.00;;;;;;;23.22;nan;99153.47;6266035;22;20000;-74
2023/07/27 11:25:24;;;;;;;0.00;0.00;;;;;;;22.99;nan;99168.31;6268125;22;20114;-78
2023/07/27 11:27:50;;;;;;;0.00;0.00;;;;;;;23.22;nan;99170.19;6270666;22;20025;-77
2023/07/27 11:30:19;;;;;;;0.00;0.00;;;;;;;23.75;nan;99169.09;6241285;22;20016;-78
2023/07/27 11:33:02;;;;;;;0.00;0.00;;;;;;;23.86;nan;99161.66;6269075;22;20398;-78
2023/07/27 11:35:27;;;;;;;0.00;0.00;;;;;;;23.80;nan;99156.78;6266780;22;20087;-78
2023/07/27 11:37:53;;;;;;;0.00;0.00;;;;;;;24.30;nan;99153.53;6242838;22;20027;-78
2023/07/27 11:40:24;;;;;;;0.00;0.00;;;;;;;24.72;nan;99169.78;6265983;22;20003;-79
2023/07/27 11:42:49;;;;;;;0.00;0.00;;;;;;;24.69;nan;99158.56;6239264;22;20481;-78
2023/07/27 11:45:16;;;;;;;0.00;0.00;;;;;;;25.07;nan;99151.53;6217628;22;20015;-78
2023/07/27 11:47:41;;;;;;;0.00;0.00;;;;;;;25.38;nan;99166.00;6268794;22;20079;-78
2023/07/27 11:50:16;;;;;;;0.00;0.00;;;;;;;24.98;nan;99172.66;6269937;22;20364;-78
2023/07/27 11:52:57;;;;;;;0.00;0.00;;;;;;;24.21;nan;99168.69;6264461;22;20008;-77
2023/07/27 11:55:28;;;;;;;0.00;0.00;;;;;;;23.69;nan;99168.66;6267676;22;20003;-78
2023/07/27 11:57:56;;;;;;;0.00;0.00;;;;;;;23.80;nan;99182.72;6264917;22;20000;-78
2023/07/27 12:00:21;;;;;;;0.00;0.00;;;;;;;24.36;nan;99174.34;6265561;22;20106;-77
2023/07/27 12:02:50;;;;;;;0.00;0.00;;;;;;;24.88;nan;99177.84;6265701;22;20004;-77
2023/07/27 12:05:21;;;;;;;0.00;0.00;;;;;;;25.11;nan;99173.91;6269386;22;20395;-78
2023/07/27 12:07:48;;;;;;;0.00;0.00;;;;;;;25.30;nan;99175.53;6262760;22;20006;-77
2023/07/27 12:10:18;;;;;;;0.00;0.00;;;;;;;25.15;nan;99155.13;6269200;22;20088;-77
2023/07/27 12:13:11;;;;;;;0.00;0.00;;;;;;;24.86;nan;99168.22;6240975;22;20423;-77
2023/07/27 12:15:38;;;;;;;0.00;0.00;;;;;;;24.39;nan;99162.41;6257350;22;20081;-78
2023/07/27 12:18:05;;;;;;;0.00;0.00;;;;;;;24.03;nan;99157.41;6262014;22;20011;-78
2023/07/27 12:20:33;;;;;;;0.00;0.00;;;;;;;23.62;nan;99173.38;6270430;22;20422;-77
2023/07/27 12:22:58;;;;;;;0.00;0.00;;;;;;;23.10;nan;99154.53;6238831;22;20007;-77
2023/07/27 12:25:28;;;;;;;0.00;0.00;;;;;;;23.01;nan;99165.97;6272521;22;20018;-79
2023/07/27 12:27:54;;;;;;;0.00;0.00;;;;;;;22.83;nan;99165.75;6265377;22;20011;-76
2023/07/27 12:30:20;;;;;;;0.00;0.00;;;;;;;22.81;nan;99161.75;6266494;22;20011;-75
2023/07/27 12:32:51;;;;;;;0.00;0.00;;;;;;;22.79;nan;99159.34;6271226;22;20469;-77
2023/07/27 12:35:24;;;;;;;0.00;0.00;;;;;;;23.01;nan;99143.66;6264994;22;20007;-78
2023/07/27 12:37:56;;;;;;;0.00;0.00;;;;;;;23.56;nan;99156.19;6217194;22;20042;-77
2023/07/27 12:40:21;;;;;;;0.00;0.00;;;;;;;23.51;nan;99160.13;6262667;22;20046;-77
2023/07/27 12:42:47;;;;;;;0.00;0.00;;;;;;;23.53;nan;99156.94;6266875;22;20015;-79
2023/07/27 12:45:16;;;;;;;0.00;0.00;;;;;;;23.49;nan;99156.13;6267814;22;20007;-79
2023/07/27 12:47:44;;;;;;;0.00;0.00;;;;;;;23.34;nan;99152.38;6242468;22;20106;-77
2023/07/27 12:50:10;;;;;;;0.00;0.00;;;;;;;23.25;nan;99168.63;6266651;22;20003;-78
2023/07/27 12:52:35;;;;;;;0.00;0.00;;;;;;;22.90;nan;99150.31;6241022;22;20035;-77
2023/07/27 12:55:01;;;;;;;0.00;0.00;;;;;;;22.76;nan;99148.94;6241219;22;20334;-77
2023/07/27 12:57:26;;;;;;;0.00;0.00;;;;;;;22.92;nan;99173.00;6241233;22;20717;-77
2023/07/27 12:59:52;;;;;;;0.00;0.00;;;;;;;23.05;nan;99160.41;6268104;22;20035;-77
2023/07/27 13:02:17;;;;;;;0.00;0.00;;;;;;;23.32;nan;99147.19;6269187;22;20008;-78
2023/07/27 13:04:43;;;;;;;0.00;0.00;;;;;;;23.40;nan;99158.44;6263495;22;20116;-79
2023/07/27 13:07:10;;;;;;;0.00;0.00;;;;;;;23.14;nan;99151.78;6240910;22;20030;-76
2023/07/27 13:09:38;;;;;;;0.00;0.00;;;;;;;22.83;nan;99164.94;6241470;22;20007;-77
2023/07/27 13:12:04;;;;;;;0.00;0.00;;;;;;;22.56;nan;99155.84;6243715;22;20007;-78
2023/07/27 13:14:29;;;;;;;0.00;0.00;;;;;;;22.35;nan;99157.16;6239025;22;20007;-77
2023/07/27 13:17:02;;;;;;;0.00;0.00;;;;;;;22.41;nan;99172.34;6269046;22;20016;-77
2023/07/27 13:19:27;;;;;;;0.00;0.00;;;;;;;22.34;nan;99165.91;6268325;22;20008;-77
2023/07/27 13:21:57;;;;;;;0.00;0.00;;;;;;;22.32;nan;99174.63;6243197;22;20149;-78
2023/07/27 13:24:30;;;;;;;0.00;0.00;;;;;;;22.88;nan;99172.97;6269476;22;19995;-78
2023/07/27 13:26:55;;;;;;;0.00;0.00;;;;;;;23.39;nan;99168.75;6240855;22;20031;-77
2023/07/27 13:29:21;;;;;;;0.00;0.00;;;;;;;24.36;nan;99175.16;6268817;22;20069;-79
2023/07/27 13:31:49;;;;;;;0.00;0.00;;;;;;;24.87;nan;99170.63;6238227;22;20007;-77
2023/07/27 13:34:14;;;;;;;0.00;0.00;;;;;;;25.32;nan;99178.78;6266793;22;20014;-77
2023/07/27 13:36:42;;;;;;;0.00;0.00;;;;;;;25.74;nan;99176.44;6265712;22;20008;-77
2023/07/27 13:39:15;;;;;;;0.00;0.00;;;;;;;25.37;nan;99183.19;6275530;22;20003;-79
2023/07/27 13:41:45;;;;;;;0.00;0.00;;;;;;;24.88;nan;99183.44;6245137;22;20068;-77
2023/07/27 13:44:12;;;;;;;0.00;0.00;;;;;;;24.36;nan;99174.34;6217266;22;20023;-78
2023/07/27 13:46:37;;;;;;;0.00;0.00;;;;;;;23.82;nan;99173.94;6275640;22;20039;-77
2023/07/27 13:49:03;;;;;;;0.00;0.00;;;;;;;23.49;nan;99189.59;6269059;22;20854;-75
2023/07/27 13:51:28;;;;;;;0.00;0.00;;;;;;;23.12;nan;99188.41;6268450;22;20003;-74
2023/07/27 13:53:54;;;;;;;0.00;0.00;;;;;;;22.79;nan;99192.78;6263604;22;20091;-74
2023/07/27 13:56:19;;;;;;;0.00;0.00;;;;;;;22.69;nan;99187.06;6242062;22;20014;-74
2023/07/27 13:58:44;;;;;;;0.00;0.00;;;;;;;22.47;nan;99186.75;6269400;22;20012;-75
2023/07/27 14:01:10;;;;;;;0.00;0.00;;;;;;;22.17;nan;99189.50;6238284;22;20000;-75
2023/07/27 14:03:38;;;;;;;0.00;0.00;;;;;;;21.95;nan;99189.16;6270735;22;20011;-74
2023/07/27 14:06:03;;;;;;;0.00;0.00;;;;;;;21.89;nan;99183.09;6240731;22;20014;-75
2023/07/27 14:08:29;;;;;;;0.00;0.00;;;;;;;21.89;nan;99179.50;6269218;22;20012;-73
2023/07/27 14:10:54;;;;;;;0.00;0.00;;;;;;;22.21;nan;99190.34;6264841;22;20350;-74
2023/07/27 14:13:20;;;;;;;0.00;0.00;;;;;;;22.26;nan;99198.38;6268508;22;20434;-75
2023/07/27 14:15:45;;;;;;;0.00;0.00;;;;;;;22.07;nan;99202.84;6270413;22;20007;-76
2023/07/27 14:18:10;;;;;;;0.00;0.00;;;;;;;21.84;nan;99204.88;6212995;22;20012;-75
2023/07/27 14:20:36;;;;;;;0.00;0.00;;;;;;;21.63;nan;99194.19;6244723;22;20015;-76
2023/07/27 14:23:01;;;;;;;0.00;0.00;;;;;;;21.47;nan;99188.72;6266770;22;20541;-76
2023/07/27 14:25:27;;;;;;;0.00;0.00;;;;;;;21.37;nan;99193.69;6244964;22;20423;-76
2023/07/27 14:27:52;;;;;;;0.00;0.00;;;;;;;21.32;nan;99191.22;6240644;22;20019;-75
2023/07/27 14:30:18;;;;;;;0.00;0.00;;;;;;;21.32;nan;99188.44;6268177;22;20480;-74
2023/07/27 14:32:43;;;;;;;0.00;0.00;;;;;;;21.25;nan;99185.53;6271141;22;20054;-75
2023/07/27 14:35:09;;;;;;;0.00;0.00;;;;;;;21.18;nan;99185.41;6241973;22;20468;-75
2023/07/27 14:37:34;;;;;;;0.00;0.00;;;;;;;21.09;nan;99194.75;6218966;22;20065;-74
2023/07/27 14:40:00;;;;;;;0.00;0.00;;;;;;;20.91;nan;99199.16;6243366;22;20418;-73
2023/07/27 14:42:25;;;;;;;0.00;0.00;;;;;;;20.73;nan;99194.03;6244959;22;20029;-75
2023/07/27 14:44:51;;;;;;;0.00;0.00;;;;;;;20.67;nan;99195.47;6243358;22;20119;-75
2023/07/27 14:47:16;;;;;;;0.00;0.00;;;;;;;20.53;nan;99197.91;6244751;22;20375;-74
2023/07/27 14:49:42;;;;;;;0.00;0.00;;;;;;;20.52;nan;99204.66;6245552;22;20011;-74
2023/07/27 14:52:08;;;;;;;0.00;0.00;;;;;;;20.65;nan;99192.25;6243428;22;20008;-75
2023/07/27 14:54:33;;;;;;;0.00;0.00;;;;;;;20.68;nan;99196.31;6270115;22;20000;-75
2023/07/27 14:56:58;;;;;;;0.00;0.00;;;;;;;20.61;nan;99208.03;6271978;22;20003;-75
2023/07/27 14:59:24;;;;;;;0.00;0.00;;;;;;;20.54;nan;99203.09;6241324;22;20422;-76
2023/07/27 15:01:50;;;;;;;0.00;0.00;;;;;;;20.55;nan;99198.38;6272275;22;20316;-76
2023/07/27 15:04:15;;;;;;;0.00;0.00;;;;;;;20.58;nan;99198.44;6241568;22;20011;-74
2023/07/27 15:06:41;;;;;;;0.00;0.00;;;;;;;20.47;nan;99202.97;6220107;22;20012;-74
2023/07/27 15:09:06;;;;;;;0.00;0.00;;;;;;;20.35;nan;99206.66;6271757;22;20532;-76
2023/07/27 15:11:32;;;;;;;0.00;0.00;;;;;;;20.25;nan;99200.88;6243811;22;20007;-75
2023/07/27 15:13:57;;;;;;;0.00;0.00;;;;;;;20.27;nan;99199.34;6270813;22;20015;-75
2023/07/27 15:16:23;;;;;;;0.00;0.00;;;;;;;20.41;nan;99198.84;6242076;22;20107;-74
2023/07/27 15:18:48;;;;;;;0.00;0.00;;;;;;;20.71;nan;99190.81;6220991;22;20007;-74
2023/07/27 15:21:14;;;;;;;0.00;0.00;;;;;;;21.07;nan;99205.44;6267769;22;20018;-75
2023/07/27 15:23:39;;;;;;;0.00;0.00;;;;;;;21.28;nan;99198.69;6270641;22;20149;-75
2023/07/27 15:26:10;;;;;;;0.00;0.00;;;;;;;21.44;nan;99199.38;6270890;22;20015;-74
2023/07/27 15:28:36;;;;;;;0.00;0.00;;;;;;;21.54;nan;99205.56;6271606;22;20007;-75
2023/07/27 15:31:04;;;;;;;0.00;0.00;;;;;;;21.64;nan;99196.59;6244160;22;20008;-75
2023/07/27 15:33:31;;;;;;;0.00;0.00;;;;;;;21.73;nan;99190.78;6267908;22;20086;-74
2023/07/27 15:35:56;;;;;;;0.00;0.00;;;;;;;21.81;nan;99194.47;6272341;22;20605;-74
2023/07/27 15:38:22;;;;;;;0.00;0.00;;;;;;;22.02;nan;99208.75;6267433;22;20000;-75